sensor_id;sensor_type;location;lat;lon;timestamp;temperature;humidity
34989;DHT22;21192;40.182;44.516;2023-06-10T00:01:49;22.00;82.80
34989;DHT22;21192;40.182;44.516;2023-06-10T00:04:15;22.00;82.40
34989;DHT22;21192;40.182;44.516;2023-06-10T00:06:45;22.00;82.30
34989;DHT22;21192;40.182;44.516;2023-06-10T00:09:14;21.90;82.70
34989;DHT22;21192;40.182;44.516;2023-06-10T00:11:40;21.90;82.90
34989;DHT22;21192;40.182;44.516;2023-06-10T00:14:06;21.90;82.30
34989;DHT22;21192;40.182;44.516;2023-06-10T00:16:33;22.00;81.40
34989;DHT22;21192;40.182;44.516;2023-06-10T00:19:03;21.90;80.80
34989;DHT22;21192;40.182;44.516;2023-06-10T00:21:34;21.90;80.40
34989;DHT22;21192;40.182;44.516;2023-06-10T00:24:06;21.80;80.10
34989;DHT22;21192;40.182;44.516;2023-06-10T00:26:33;21.80;79.70
34989;DHT22;21192;40.182;44.516;2023-06-10T00:29:01;21.80;79.50
34989;DHT22;21192;40.182;44.516;2023-06-10T00:31:27;21.70;79.30
34989;DHT22;21192;40.182;44.516;2023-06-10T00:33:53;21.80;79.10
34989;DHT22;21192;40.182;44.516;2023-06-10T00:36:19;21.80;78.80
34989;DHT22;21192;40.182;44.516;2023-06-10T00:38:45;21.90;79.20
34989;DHT22;21192;40.182;44.516;2023-06-10T00:41:11;21.80;78.70
34989;DHT22;21192;40.182;44.516;2023-06-10T00:43:36;21.80;78.70
34989;DHT22;21192;40.182;44.516;2023-06-10T00:46:02;21.80;78.50
34989;DHT22;21192;40.182;44.516;2023-06-10T00:48:28;21.90;77.90
34989;DHT22;21192;40.182;44.516;2023-06-10T00:50:54;21.90;77.80
34989;DHT22;21192;40.182;44.516;2023-06-10T00:53:22;21.90;77.70
34989;DHT22;21192;40.182;44.516;2023-06-10T00:55:48;21.90;77.40
34989;DHT22;21192;40.182;44.516;2023-06-10T00:58:15;21.90;77.30
34989;DHT22;21192;40.182;44.516;2023-06-10T01:00:41;21.90;77.30
34989;DHT22;21192;40.182;44.516;2023-06-10T01:03:07;21.90;77.10
34989;DHT22;21192;40.182;44.516;2023-06-10T01:05:36;21.90;77.20
34989;DHT22;21192;40.182;44.516;2023-06-10T01:08:13;21.90;77.30
34989;DHT22;21192;40.182;44.516;2023-06-10T01:10:49;21.80;77.50
34989;DHT22;21192;40.182;44.516;2023-06-10T01:13:16;21.70;77.80
34989;DHT22;21192;40.182;44.516;2023-06-10T01:15:44;21.70;78.00
34989;DHT22;21192;40.182;44.516;2023-06-10T01:18:10;21.70;78.10
34989;DHT22;21192;40.182;44.516;2023-06-10T01:20:41;21.60;78.40
34989;DHT22;21192;40.182;44.516;2023-06-10T01:23:07;21.70;78.30
34989;DHT22;21192;40.182;44.516;2023-06-10T01:25:36;21.70;78.60
34989;DHT22;21192;40.182;44.516;2023-06-10T01:28:25;21.60;79.10
34989;DHT22;21192;40.182;44.516;2023-06-10T01:33:29;21.60;78.50
34989;DHT22;21192;40.182;44.516;2023-06-10T01:35:58;21.60;78.30
34989;DHT22;21192;40.182;44.516;2023-06-10T01:38:26;21.50;78.20
34989;DHT22;21192;40.182;44.516;2023-06-10T01:40:56;21.50;77.80
34989;DHT22;21192;40.182;44.516;2023-06-10T01:43:22;21.50;77.60
34989;DHT22;21192;40.182;44.516;2023-06-10T01:45:48;21.60;77.50
34989;DHT22;21192;40.182;44.516;2023-06-10T01:48:14;21.60;78.20
34989;DHT22;21192;40.182;44.516;2023-06-10T01:50:39;21.60;77.60
34989;DHT22;21192;40.182;44.516;2023-06-10T01:53:05;21.70;77.20
34989;DHT22;21192;40.182;44.516;2023-06-10T01:55:31;21.80;76.90
34989;DHT22;21192;40.182;44.516;2023-06-10T01:57:57;21.90;76.50
34989;DHT22;21192;40.182;44.516;2023-06-10T02:00:23;22.00;76.50
34989;DHT22;21192;40.182;44.516;2023-06-10T02:02:48;22.00;77.40
34989;DHT22;21192;40.182;44.516;2023-06-10T02:05:14;22.00;78.60
34989;DHT22;21192;40.182;44.516;2023-06-10T02:07:40;22.10;79.30
34989;DHT22;21192;40.182;44.516;2023-06-10T02:10:07;22.20;80.00
34989;DHT22;21192;40.182;44.516;2023-06-10T02:12:33;22.30;80.60
34989;DHT22;21192;40.182;44.516;2023-06-10T02:14:58;22.30;81.10
34989;DHT22;21192;40.182;44.516;2023-06-10T02:17:24;22.40;81.40
34989;DHT22;21192;40.182;44.516;2023-06-10T02:19:50;22.50;81.40
34989;DHT22;21192;40.182;44.516;2023-06-10T02:22:23;22.50;81.20
34989;DHT22;21192;40.182;44.516;2023-06-10T02:24:49;22.60;81.30
34989;DHT22;21192;40.182;44.516;2023-06-10T02:27:15;22.70;81.00
34989;DHT22;21192;40.182;44.516;2023-06-10T02:29:42;22.90;80.60
34989;DHT22;21192;40.182;44.516;2023-06-10T02:32:09;23.70;79.10
34989;DHT22;21192;40.182;44.516;2023-06-10T02:34:35;24.80;76.30
34989;DHT22;21192;40.182;44.516;2023-06-10T02:37:02;25.70;72.80
34989;DHT22;21192;40.182;44.516;2023-06-10T02:39:28;26.60;69.00
34989;DHT22;21192;40.182;44.516;2023-06-10T02:41:54;27.50;65.60
34989;DHT22;21192;40.182;44.516;2023-06-10T02:44:19;28.50;63.20
34989;DHT22;21192;40.182;44.516;2023-06-10T02:46:46;29.50;60.90
34989;DHT22;21192;40.182;44.516;2023-06-10T02:49:12;30.30;57.70
34989;DHT22;21192;40.182;44.516;2023-06-10T02:51:38;31.10;55.60
34989;DHT22;21192;40.182;44.516;2023-06-10T02:54:04;31.70;53.60
34989;DHT22;21192;40.182;44.516;2023-06-10T02:56:31;32.00;51.70
34989;DHT22;21192;40.182;44.516;2023-06-10T02:58:58;32.70;50.30
34989;DHT22;21192;40.182;44.516;2023-06-10T03:01:24;33.30;49.10
34989;DHT22;21192;40.182;44.516;2023-06-10T03:03:50;34.00;48.00
34989;DHT22;21192;40.182;44.516;2023-06-10T03:06:16;34.50;46.90
34989;DHT22;21192;40.182;44.516;2023-06-10T03:08:43;35.00;46.00
34989;DHT22;21192;40.182;44.516;2023-06-10T03:11:11;35.30;45.20
34989;DHT22;21192;40.182;44.516;2023-06-10T03:13:38;35.80;44.40
34989;DHT22;21192;40.182;44.516;2023-06-10T03:16:05;36.30;43.60
34989;DHT22;21192;40.182;44.516;2023-06-10T03:18:31;36.70;42.70
34989;DHT22;21192;40.182;44.516;2023-06-10T03:20:56;37.20;41.90
34989;DHT22;21192;40.182;44.516;2023-06-10T03:23:23;37.70;41.30
34989;DHT22;21192;40.182;44.516;2023-06-10T03:25:49;38.10;40.60
34989;DHT22;21192;40.182;44.516;2023-06-10T03:28:15;38.50;39.80
34989;DHT22;21192;40.182;44.516;2023-06-10T03:30:40;39.10;39.10
34989;DHT22;21192;40.182;44.516;2023-06-10T03:33:06;39.70;38.40
34989;DHT22;21192;40.182;44.516;2023-06-10T03:35:32;40.00;37.80
34989;DHT22;21192;40.182;44.516;2023-06-10T03:37:58;40.70;37.10
34989;DHT22;21192;40.182;44.516;2023-06-10T03:40:24;41.30;36.30
34989;DHT22;21192;40.182;44.516;2023-06-10T03:42:50;41.60;35.60
34989;DHT22;21192;40.182;44.516;2023-06-10T03:45:16;41.40;35.40
34989;DHT22;21192;40.182;44.516;2023-06-10T03:47:42;39.90;35.90
34989;DHT22;21192;40.182;44.516;2023-06-10T03:50:09;38.50;37.30
34989;DHT22;21192;40.182;44.516;2023-06-10T03:52:38;38.50;38.00
34989;DHT22;21192;40.182;44.516;2023-06-10T03:55:05;39.10;37.90
34989;DHT22;21192;40.182;44.516;2023-06-10T03:57:31;39.90;37.20
34989;DHT22;21192;40.182;44.516;2023-06-10T03:59:58;40.70;36.40
34989;DHT22;21192;40.182;44.516;2023-06-10T04:02:23;41.20;35.90
34989;DHT22;21192;40.182;44.516;2023-06-10T04:04:49;41.90;35.20
34989;DHT22;21192;40.182;44.516;2023-06-10T04:07:17;42.30;34.70
34989;DHT22;21192;40.182;44.516;2023-06-10T04:09:44;42.90;34.20
34989;DHT22;21192;40.182;44.516;2023-06-10T04:12:10;43.60;33.50
34989;DHT22;21192;40.182;44.516;2023-06-10T04:14:36;44.00;32.80
34989;DHT22;21192;40.182;44.516;2023-06-10T04:17:04;44.60;32.40
34989;DHT22;21192;40.182;44.516;2023-06-10T04:19:32;45.00;31.90
34989;DHT22;21192;40.182;44.516;2023-06-10T04:22:00;45.60;31.30
34989;DHT22;21192;40.182;44.516;2023-06-10T04:24:26;46.10;30.90
34989;DHT22;21192;40.182;44.516;2023-06-10T04:26:52;46.10;30.60
34989;DHT22;21192;40.182;44.516;2023-06-10T04:29:17;46.30;30.60
34989;DHT22;21192;40.182;44.516;2023-06-10T04:31:43;46.70;30.40
34989;DHT22;21192;40.182;44.516;2023-06-10T04:34:11;46.60;30.30
34989;DHT22;21192;40.182;44.516;2023-06-10T04:36:38;46.80;30.00
34989;DHT22;21192;40.182;44.516;2023-06-10T04:39:04;46.80;29.90
34989;DHT22;21192;40.182;44.516;2023-06-10T04:41:31;46.80;29.90
34989;DHT22;21192;40.182;44.516;2023-06-10T04:43:57;46.60;29.90
34989;DHT22;21192;40.182;44.516;2023-06-10T04:46:23;46.00;30.10
34989;DHT22;21192;40.182;44.516;2023-06-10T04:48:50;45.30;30.70
34989;DHT22;21192;40.182;44.516;2023-06-10T04:51:15;44.40;31.20
34989;DHT22;21192;40.182;44.516;2023-06-10T04:53:42;43.50;32.00
34989;DHT22;21192;40.182;44.516;2023-06-10T04:56:08;42.20;32.80
34989;DHT22;21192;40.182;44.516;2023-06-10T04:58:34;41.20;33.80
34989;DHT22;21192;40.182;44.516;2023-06-10T05:01:00;40.40;34.60
34989;DHT22;21192;40.182;44.516;2023-06-10T05:03:27;39.70;35.40
34989;DHT22;21192;40.182;44.516;2023-06-10T05:05:53;38.80;36.30
34989;DHT22;21192;40.182;44.516;2023-06-10T05:08:18;38.10;37.20
34989;DHT22;21192;40.182;44.516;2023-06-10T05:10:44;37.50;38.20
34989;DHT22;21192;40.182;44.516;2023-06-10T05:13:10;36.60;39.10
34989;DHT22;21192;40.182;44.516;2023-06-10T05:15:36;35.80;40.20
34989;DHT22;21192;40.182;44.516;2023-06-10T05:18:02;34.90;42.00
34989;DHT22;21192;40.182;44.516;2023-06-10T05:20:28;34.00;43.70
34989;DHT22;21192;40.182;44.516;2023-06-10T05:22:55;33.30;45.10
34989;DHT22;21192;40.182;44.516;2023-06-10T05:25:21;33.00;45.80
34989;DHT22;21192;40.182;44.516;2023-06-10T05:27:46;32.70;46.10
34989;DHT22;21192;40.182;44.516;2023-06-10T05:30:12;32.30;46.60
34989;DHT22;21192;40.182;44.516;2023-06-10T05:32:38;32.00;47.20
34989;DHT22;21192;40.182;44.516;2023-06-10T05:35:04;31.70;47.90
34989;DHT22;21192;40.182;44.516;2023-06-10T05:37:33;31.70;48.10
34989;DHT22;21192;40.182;44.516;2023-06-10T05:39:59;31.50;48.60
34989;DHT22;21192;40.182;44.516;2023-06-10T05:42:24;31.40;48.90
34989;DHT22;21192;40.182;44.516;2023-06-10T05:44:50;31.20;49.20
34989;DHT22;21192;40.182;44.516;2023-06-10T05:47:16;31.00;49.80
34989;DHT22;21192;40.182;44.516;2023-06-10T05:49:42;31.00;50.10
34989;DHT22;21192;40.182;44.516;2023-06-10T05:52:11;30.80;50.40
34989;DHT22;21192;40.182;44.516;2023-06-10T05:54:36;30.90;50.70
34989;DHT22;21192;40.182;44.516;2023-06-10T05:57:02;30.90;50.80
34989;DHT22;21192;40.182;44.516;2023-06-10T05:59:29;30.80;51.30
34989;DHT22;21192;40.182;44.516;2023-06-10T06:01:54;30.70;51.70
34989;DHT22;21192;40.182;44.516;2023-06-10T06:04:20;30.50;51.90
34989;DHT22;21192;40.182;44.516;2023-06-10T06:06:46;30.60;52.00
34989;DHT22;21192;40.182;44.516;2023-06-10T06:09:12;30.70;52.00
34989;DHT22;21192;40.182;44.516;2023-06-10T06:11:38;30.70;52.30
34989;DHT22;21192;40.182;44.516;2023-06-10T06:14:04;30.40;53.10
34989;DHT22;21192;40.182;44.516;2023-06-10T06:16:30;30.10;53.60
34989;DHT22;21192;40.182;44.516;2023-06-10T06:18:56;29.90;53.90
34989;DHT22;21192;40.182;44.516;2023-06-10T06:21:21;29.70;54.10
34989;DHT22;21192;40.182;44.516;2023-06-10T06:23:47;29.70;54.20
34989;DHT22;21192;40.182;44.516;2023-06-10T06:26:13;29.80;54.00
34989;DHT22;21192;40.182;44.516;2023-06-10T06:28:39;29.80;54.00
34989;DHT22;21192;40.182;44.516;2023-06-10T06:31:05;29.90;53.90
34989;DHT22;21192;40.182;44.516;2023-06-10T06:33:32;30.00;53.80
34989;DHT22;21192;40.182;44.516;2023-06-10T06:35:58;30.00;53.70
34989;DHT22;21192;40.182;44.516;2023-06-10T06:38:26;30.20;53.80
34989;DHT22;21192;40.182;44.516;2023-06-10T06:40:51;29.90;53.60
34989;DHT22;21192;40.182;44.516;2023-06-10T06:43:17;29.90;54.30
34989;DHT22;21192;40.182;44.516;2023-06-10T06:45:44;29.80;54.20
34989;DHT22;21192;40.182;44.516;2023-06-10T06:48:11;29.80;54.30
34989;DHT22;21192;40.182;44.516;2023-06-10T06:50:37;29.90;54.50
34989;DHT22;21192;40.182;44.516;2023-06-10T06:53:04;29.70;54.50
34989;DHT22;21192;40.182;44.516;2023-06-10T06:55:30;29.70;54.80
34989;DHT22;21192;40.182;44.516;2023-06-10T06:57:55;29.80;54.80
34989;DHT22;21192;40.182;44.516;2023-06-10T07:00:22;29.90;54.60
34989;DHT22;21192;40.182;44.516;2023-06-10T07:02:48;30.20;54.20
34989;DHT22;21192;40.182;44.516;2023-06-10T07:05:14;30.30;53.60
34989;DHT22;21192;40.182;44.516;2023-06-10T07:07:40;30.40;53.30
34989;DHT22;21192;40.182;44.516;2023-06-10T07:10:06;30.50;52.90
34989;DHT22;21192;40.182;44.516;2023-06-10T07:12:32;30.70;52.50
34989;DHT22;21192;40.182;44.516;2023-06-10T07:14:58;30.80;52.30
34989;DHT22;21192;40.182;44.516;2023-06-10T07:17:23;30.80;52.10
34989;DHT22;21192;40.182;44.516;2023-06-10T07:19:49;30.70;51.70
34989;DHT22;21192;40.182;44.516;2023-06-10T07:22:17;30.60;51.50
34989;DHT22;21192;40.182;44.516;2023-06-10T07:24:43;30.60;51.40
34989;DHT22;21192;40.182;44.516;2023-06-10T07:27:09;30.70;51.10
34989;DHT22;21192;40.182;44.516;2023-06-10T07:29:35;30.60;50.90
34989;DHT22;21192;40.182;44.516;2023-06-10T07:32:03;30.70;50.60
34989;DHT22;21192;40.182;44.516;2023-06-10T07:34:29;30.80;50.60
34989;DHT22;21192;40.182;44.516;2023-06-10T07:36:55;30.80;50.60
34989;DHT22;21192;40.182;44.516;2023-06-10T07:39:20;30.80;50.60
34989;DHT22;21192;40.182;44.516;2023-06-10T07:41:46;30.80;50.60
34989;DHT22;21192;40.182;44.516;2023-06-10T07:44:14;30.50;50.80
34989;DHT22;21192;40.182;44.516;2023-06-10T07:46:40;30.30;51.00
34989;DHT22;21192;40.182;44.516;2023-06-10T07:49:06;30.20;51.40
34989;DHT22;21192;40.182;44.516;2023-06-10T07:51:31;30.10;51.30
34989;DHT22;21192;40.182;44.516;2023-06-10T07:53:57;30.20;51.40
34989;DHT22;21192;40.182;44.516;2023-06-10T07:56:23;30.30;51.30
34989;DHT22;21192;40.182;44.516;2023-06-10T07:58:49;30.50;51.30
34989;DHT22;21192;40.182;44.516;2023-06-10T08:01:15;30.60;51.30
34989;DHT22;21192;40.182;44.516;2023-06-10T08:03:40;30.70;51.10
34989;DHT22;21192;40.182;44.516;2023-06-10T08:06:06;30.90;50.70
34989;DHT22;21192;40.182;44.516;2023-06-10T08:08:32;30.90;50.30
34989;DHT22;21192;40.182;44.516;2023-06-10T08:11:00;31.10;50.00
34989;DHT22;21192;40.182;44.516;2023-06-10T08:13:25;31.10;49.80
34989;DHT22;21192;40.182;44.516;2023-06-10T08:15:51;31.10;49.90
34989;DHT22;21192;40.182;44.516;2023-06-10T08:18:19;30.90;50.30
34989;DHT22;21192;40.182;44.516;2023-06-10T08:20:44;30.60;51.10
34989;DHT22;21192;40.182;44.516;2023-06-10T08:23:10;30.30;51.70
34989;DHT22;21192;40.182;44.516;2023-06-10T08:25:36;30.00;51.90
34989;DHT22;21192;40.182;44.516;2023-06-10T08:28:02;29.80;52.20
34989;DHT22;21192;40.182;44.516;2023-06-10T08:30:28;29.70;52.40
34989;DHT22;21192;40.182;44.516;2023-06-10T08:32:53;29.70;52.30
34989;DHT22;21192;40.182;44.516;2023-06-10T08:35:21;29.70;52.50
34989;DHT22;21192;40.182;44.516;2023-06-10T08:37:47;29.50;52.80
34989;DHT22;21192;40.182;44.516;2023-06-10T08:40:13;29.50;52.90
34989;DHT22;21192;40.182;44.516;2023-06-10T08:42:43;29.50;52.80
34989;DHT22;21192;40.182;44.516;2023-06-10T08:45:16;29.60;52.80
34989;DHT22;21192;40.182;44.516;2023-06-10T08:47:45;29.80;52.70
34989;DHT22;21192;40.182;44.516;2023-06-10T08:50:15;30.00;52.40
34989;DHT22;21192;40.182;44.516;2023-06-10T08:52:43;30.10;52.10
34989;DHT22;21192;40.182;44.516;2023-06-10T08:55:27;30.20;51.80
34989;DHT22;21192;40.182;44.516;2023-06-10T08:57:53;30.30;51.30
34989;DHT22;21192;40.182;44.516;2023-06-10T09:00:20;30.30;51.30
34989;DHT22;21192;40.182;44.516;2023-06-10T09:02:47;30.40;51.10
34989;DHT22;21192;40.182;44.516;2023-06-10T09:05:13;30.30;51.00
34989;DHT22;21192;40.182;44.516;2023-06-10T09:07:39;30.40;50.80
34989;DHT22;21192;40.182;44.516;2023-06-10T09:10:05;30.40;50.60
34989;DHT22;21192;40.182;44.516;2023-06-10T09:12:35;30.40;50.40
34989;DHT22;21192;40.182;44.516;2023-06-10T09:15:04;30.30;50.60
34989;DHT22;21192;40.182;44.516;2023-06-10T09:17:30;30.30;50.60
34989;DHT22;21192;40.182;44.516;2023-06-10T09:19:56;30.10;50.50
34989;DHT22;21192;40.182;44.516;2023-06-10T09:22:23;30.00;50.70
34989;DHT22;21192;40.182;44.516;2023-06-10T09:24:49;29.80;50.20
34989;DHT22;21192;40.182;44.516;2023-06-10T09:27:15;29.80;50.20
34989;DHT22;21192;40.182;44.516;2023-06-10T09:29:54;29.70;49.40
34989;DHT22;21192;40.182;44.516;2023-06-10T09:32:21;29.70;49.70
34989;DHT22;21192;40.182;44.516;2023-06-10T09:34:47;29.70;50.10
34989;DHT22;21192;40.182;44.516;2023-06-10T09:37:23;29.90;50.00
34989;DHT22;21192;40.182;44.516;2023-06-10T09:40:06;29.90;49.90
34989;DHT22;21192;40.182;44.516;2023-06-10T09:42:37;29.90;49.70
34989;DHT22;21192;40.182;44.516;2023-06-10T09:45:05;29.90;49.70
34989;DHT22;21192;40.182;44.516;2023-06-10T09:47:31;29.90;49.50
34989;DHT22;21192;40.182;44.516;2023-06-10T09:49:57;29.70;49.40
34989;DHT22;21192;40.182;44.516;2023-06-10T09:52:26;29.70;49.60
34989;DHT22;21192;40.182;44.516;2023-06-10T09:54:53;29.50;49.90
34989;DHT22;21192;40.182;44.516;2023-06-10T09:57:21;29.50;50.10
34989;DHT22;21192;40.182;44.516;2023-06-10T09:59:47;29.40;50.20
34989;DHT22;21192;40.182;44.516;2023-06-10T10:02:16;29.40;50.20
34989;DHT22;21192;40.182;44.516;2023-06-10T10:04:45;29.30;50.40
34989;DHT22;21192;40.182;44.516;2023-06-10T10:07:12;29.20;50.90
34989;DHT22;21192;40.182;44.516;2023-06-10T10:09:38;29.10;51.40
34989;DHT22;21192;40.182;44.516;2023-06-10T10:12:13;28.90;51.50
34989;DHT22;21192;40.182;44.516;2023-06-10T10:14:45;28.80;51.80
34989;DHT22;21192;40.182;44.516;2023-06-10T10:17:14;28.70;52.20
34989;DHT22;21192;40.182;44.516;2023-06-10T10:19:46;28.60;52.90
34989;DHT22;21192;40.182;44.516;2023-06-10T10:22:19;28.60;53.20
34989;DHT22;21192;40.182;44.516;2023-06-10T10:24:55;28.50;54.40
34989;DHT22;21192;40.182;44.516;2023-06-10T10:27:36;28.40;53.70
34989;DHT22;21192;40.182;44.516;2023-06-10T10:30:05;28.40;54.60
34989;DHT22;21192;40.182;44.516;2023-06-10T10:32:38;28.30;55.60
34989;DHT22;21192;40.182;44.516;2023-06-10T10:35:12;28.20;54.90
34989;DHT22;21192;40.182;44.516;2023-06-10T10:37:39;28.20;54.90
34989;DHT22;21192;40.182;44.516;2023-06-10T10:40:06;28.20;55.10
34989;DHT22;21192;40.182;44.516;2023-06-10T10:42:34;28.20;55.10
34989;DHT22;21192;40.182;44.516;2023-06-10T10:45:00;28.20;55.30
34989;DHT22;21192;40.182;44.516;2023-06-10T10:47:27;28.10;55.60
34989;DHT22;21192;40.182;44.516;2023-06-10T10:49:56;28.10;56.10
34989;DHT22;21192;40.182;44.516;2023-06-10T10:52:26;28.00;56.30
34989;DHT22;21192;40.182;44.516;2023-06-10T10:54:53;28.00;56.50
34989;DHT22;21192;40.182;44.516;2023-06-10T10:57:22;27.90;56.70
34989;DHT22;21192;40.182;44.516;2023-06-10T11:02:34;27.70;57.20
34989;DHT22;21192;40.182;44.516;2023-06-10T11:05:01;27.70;57.30
34989;DHT22;21192;40.182;44.516;2023-06-10T11:07:30;27.60;57.60
34989;DHT22;21192;40.182;44.516;2023-06-10T11:10:04;27.60;58.10
34989;DHT22;21192;40.182;44.516;2023-06-10T11:12:51;27.60;58.60
34989;DHT22;21192;40.182;44.516;2023-06-10T11:15:27;27.60;59.40
34989;DHT22;21192;40.182;44.516;2023-06-10T11:18:12;27.60;59.80
34989;DHT22;21192;40.182;44.516;2023-06-10T11:31:24;27.80;61.00
34989;DHT22;21192;40.182;44.516;2023-06-10T11:36:25;27.70;60.90
34989;DHT22;21192;40.182;44.516;2023-06-10T11:38:59;27.60;60.90
34989;DHT22;21192;40.182;44.516;2023-06-10T11:41:27;27.50;61.40
34989;DHT22;21192;40.182;44.516;2023-06-10T11:43:53;27.40;61.50
34989;DHT22;21192;40.182;44.516;2023-06-10T11:46:22;27.30;61.80
34989;DHT22;21192;40.182;44.516;2023-06-10T11:48:52;27.30;61.90
34989;DHT22;21192;40.182;44.516;2023-06-10T11:51:19;27.30;61.90
34989;DHT22;21192;40.182;44.516;2023-06-10T11:53:46;27.30;61.90
34989;DHT22;21192;40.182;44.516;2023-06-10T11:56:12;27.30;62.40
34989;DHT22;21192;40.182;44.516;2023-06-10T11:58:42;27.30;62.60
34989;DHT22;21192;40.182;44.516;2023-06-10T12:01:09;27.30;63.00
34989;DHT22;21192;40.182;44.516;2023-06-10T12:03:38;27.20;63.20
34989;DHT22;21192;40.182;44.516;2023-06-10T12:06:06;27.10;63.10
34989;DHT22;21192;40.182;44.516;2023-06-10T12:08:33;27.00;63.20
34989;DHT22;21192;40.182;44.516;2023-06-10T12:10:59;26.90;63.20
34989;DHT22;21192;40.182;44.516;2023-06-10T12:13:29;26.90;63.50
34989;DHT22;21192;40.182;44.516;2023-06-10T12:15:54;26.70;65.00
34989;DHT22;21192;40.182;44.516;2023-06-10T12:18:31;26.40;66.50
34989;DHT22;21192;40.182;44.516;2023-06-10T12:20:57;26.10;69.00
34989;DHT22;21192;40.182;44.516;2023-06-10T12:23:22;25.70;72.00
34989;DHT22;21192;40.182;44.516;2023-06-10T12:25:53;25.50;74.80
34989;DHT22;21192;40.182;44.516;2023-06-10T12:28:25;25.10;78.00
34989;DHT22;21192;40.182;44.516;2023-06-10T12:30:51;24.80;81.50
34989;DHT22;21192;40.182;44.516;2023-06-10T12:33:31;24.70;83.90
34989;DHT22;21192;40.182;44.516;2023-06-10T12:35:56;24.70;85.70
34989;DHT22;21192;40.182;44.516;2023-06-10T12:38:24;24.70;86.20
34989;DHT22;21192;40.182;44.516;2023-06-10T12:40:50;24.60;86.80
34989;DHT22;21192;40.182;44.516;2023-06-10T12:43:20;24.60;87.00
34989;DHT22;21192;40.182;44.516;2023-06-10T12:45:46;24.50;87.70
34989;DHT22;21192;40.182;44.516;2023-06-10T12:48:24;24.70;86.90
34989;DHT22;21192;40.182;44.516;2023-06-10T12:50:57;24.80;85.00
34989;DHT22;21192;40.182;44.516;2023-06-10T12:53:24;24.70;84.20
34989;DHT22;21192;40.182;44.516;2023-06-10T12:55:52;24.70;83.80
34989;DHT22;21192;40.182;44.516;2023-06-10T12:58:21;24.70;83.20
34989;DHT22;21192;40.182;44.516;2023-06-10T13:00:47;24.70;82.90
34989;DHT22;21192;40.182;44.516;2023-06-10T13:03:14;24.80;82.00
34989;DHT22;21192;40.182;44.516;2023-06-10T13:05:40;25.00;81.30
34989;DHT22;21192;40.182;44.516;2023-06-10T13:08:08;25.00;81.10
34989;DHT22;21192;40.182;44.516;2023-06-10T13:10:36;25.10;80.20
34989;DHT22;21192;40.182;44.516;2023-06-10T13:13:02;25.20;79.80
34989;DHT22;21192;40.182;44.516;2023-06-10T13:15:32;25.20;79.90
34989;DHT22;21192;40.182;44.516;2023-06-10T13:18:02;25.20;81.30
34989;DHT22;21192;40.182;44.516;2023-06-10T13:20:29;25.30;82.50
34989;DHT22;21192;40.182;44.516;2023-06-10T13:22:55;25.30;82.70
34989;DHT22;21192;40.182;44.516;2023-06-10T13:25:21;25.40;82.60
34989;DHT22;21192;40.182;44.516;2023-06-10T13:27:47;25.50;82.70
34989;DHT22;21192;40.182;44.516;2023-06-10T13:30:13;25.50;82.20
34989;DHT22;21192;40.182;44.516;2023-06-10T13:32:39;25.50;81.40
34989;DHT22;21192;40.182;44.516;2023-06-10T13:35:05;25.30;80.60
34989;DHT22;21192;40.182;44.516;2023-06-10T13:37:31;25.10;81.20
34989;DHT22;21192;40.182;44.516;2023-06-10T13:39:59;25.00;81.70
34989;DHT22;21192;40.182;44.516;2023-06-10T13:42:25;25.00;81.80
34989;DHT22;21192;40.182;44.516;2023-06-10T13:44:52;24.90;82.50
34989;DHT22;21192;40.182;44.516;2023-06-10T13:47:17;24.80;82.70
34989;DHT22;21192;40.182;44.516;2023-06-10T13:49:43;24.90;83.00
34989;DHT22;21192;40.182;44.516;2023-06-10T13:52:09;24.80;83.10
34989;DHT22;21192;40.182;44.516;2023-06-10T13:54:35;24.70;83.20
34989;DHT22;21192;40.182;44.516;2023-06-10T13:57:04;24.50;83.40
34989;DHT22;21192;40.182;44.516;2023-06-10T13:59:30;24.50;83.20
34989;DHT22;21192;40.182;44.516;2023-06-10T14:01:56;24.40;83.40
34989;DHT22;21192;40.182;44.516;2023-06-10T14:04:22;24.30;84.50
34989;DHT22;21192;40.182;44.516;2023-06-10T14:06:48;24.30;84.40
34989;DHT22;21192;40.182;44.516;2023-06-10T14:09:14;24.20;83.70
34989;DHT22;21192;40.182;44.516;2023-06-10T14:11:40;24.20;83.20
34989;DHT22;21192;40.182;44.516;2023-06-10T14:14:06;24.20;81.50
34989;DHT22;21192;40.182;44.516;2023-06-10T14:16:32;24.20;81.20
34989;DHT22;21192;40.182;44.516;2023-06-10T14:18:58;24.30;80.20
34989;DHT22;21192;40.182;44.516;2023-06-10T14:21:24;24.30;78.80
34989;DHT22;21192;40.182;44.516;2023-06-10T14:23:50;24.40;78.30
34989;DHT22;21192;40.182;44.516;2023-06-10T14:26:18;24.30;76.80
34989;DHT22;21192;40.182;44.516;2023-06-10T14:28:44;24.30;77.00
34989;DHT22;21192;40.182;44.516;2023-06-10T14:31:10;24.40;76.80
34989;DHT22;21192;40.182;44.516;2023-06-10T14:33:36;24.40;76.60
34989;DHT22;21192;40.182;44.516;2023-06-10T14:36:02;24.40;76.80
34989;DHT22;21192;40.182;44.516;2023-06-10T14:38:28;24.40;76.80
34989;DHT22;21192;40.182;44.516;2023-06-10T14:40:53;24.40;77.00
34989;DHT22;21192;40.182;44.516;2023-06-10T14:43:19;24.40;77.30
34989;DHT22;21192;40.182;44.516;2023-06-10T14:45:45;24.50;77.40
34989;DHT22;21192;40.182;44.516;2023-06-10T14:48:11;24.40;77.60
34989;DHT22;21192;40.182;44.516;2023-06-10T14:50:38;24.40;78.30
34989;DHT22;21192;40.182;44.516;2023-06-10T14:53:06;24.40;77.70
34989;DHT22;21192;40.182;44.516;2023-06-10T14:55:31;24.40;77.90
34989;DHT22;21192;40.182;44.516;2023-06-10T14:57:57;24.40;78.10
34989;DHT22;21192;40.182;44.516;2023-06-10T15:00:23;24.40;78.40
34989;DHT22;21192;40.182;44.516;2023-06-10T15:02:51;24.40;78.30
34989;DHT22;21192;40.182;44.516;2023-06-10T15:05:18;24.40;78.30
34989;DHT22;21192;40.182;44.516;2023-06-10T15:07:45;24.40;78.50
34989;DHT22;21192;40.182;44.516;2023-06-10T15:10:11;24.50;79.00
34989;DHT22;21192;40.182;44.516;2023-06-10T15:12:37;24.50;79.50
34989;DHT22;21192;40.182;44.516;2023-06-10T15:15:04;24.60;79.50
34989;DHT22;21192;40.182;44.516;2023-06-10T15:17:30;24.60;79.00
34989;DHT22;21192;40.182;44.516;2023-06-10T15:19:56;24.60;79.60
34989;DHT22;21192;40.182;44.516;2023-06-10T15:22:22;24.60;78.10
34989;DHT22;21192;40.182;44.516;2023-06-10T15:24:48;24.60;77.30
34989;DHT22;21192;40.182;44.516;2023-06-10T15:27:14;24.60;76.70
34989;DHT22;21192;40.182;44.516;2023-06-10T15:29:40;24.60;76.20
34989;DHT22;21192;40.182;44.516;2023-06-10T15:32:06;24.60;76.20
34989;DHT22;21192;40.182;44.516;2023-06-10T15:34:32;24.60;76.30